Station History

Weather Underground - logo

Station Historical Data
Daily Summary for December 3, 2017 Units:  Metric    English   Both
« Previous Day
Next Day »
Daily Weekly Monthly Yearly Custom
  High: Low: Average:
Temperature: 16.2 °C 5 °C 9.8 °C
Dew Point: 10.2 °C 3.1 °C 6.2 °C
Humidity: 95 % 54 % 80 %
Wind Speed: 8 km/h 0 km/h 1.4 km/h
Wind Gust: 8 km/h - -
Wind:- - WNW
Pressure: 1021.9 hPa 1016.8 hPa -
Precipitation: 0 mm    
Historical Graphs
 
 
Tabular Data for December 3, 2017
Time Temperature Dew Point Pressure Wind Wind Speed Wind Gust Humidity Rainfall Rate (Hourly)
00:00 6.9 °C 5.8 °C 1017.2 hPa Calm     93 % 0 mm
00:10 7.1 °C 6.1 °C 1017.2 hPa Calm     93 % 0 mm
00:20 7.3 °C 6.2 °C 1016.8 hPa Calm     93 % 0 mm
00:25 7.3 °C 6.2 °C 1016.8 hPa Calm     93 % 0 mm
00:30 7.2 °C 6.2 °C 1016.8 hPa Calm     93 % 0 mm
00:40 7.4 °C 6.3 °C 1017.2 hPa Calm     93 % 0 mm
00:50 6.9 °C 5.7 °C 1017.2 hPa Calm     92 % 0 mm
00:55 6.9 °C 5.7 °C 1017.2 hPa Calm     92 % 0 mm
01:00 7 °C 5.9 °C 1017.2 hPa Calm     93 % 0 mm
01:10 7.2 °C 6.3 °C 1016.8 hPa Calm     94 % 0 mm
01:20 7.3 °C 6.3 °C 1017.2 hPa Calm     93 % 0 mm
01:25 7.3 °C 6.3 °C 1017.2 hPa Calm     93 % 0 mm
01:30 7.2 °C 6.2 °C 1017.2 hPa Calm     93 % 0 mm
01:35 7.1 °C 5.8 °C 1017.2 hPa Calm     92 % 0 mm
01:40 6.9 °C 5.9 °C 1017.2 hPa Calm     93 % 0 mm
01:45 6.9 °C 5.7 °C 1017.2 hPa Calm     92 % 0 mm
01:50 6.8 °C 5.6 °C 1017.2 hPa Calm     92 % 0 mm
01:55 6.8 °C 5.7 °C 1017.2 hPa Calm     93 % 0 mm
02:00 6.8 °C 5.8 °C 1017.2 hPa ESE 1.9 km/h 1.9 km/h 93 % 0 mm
02:05 6.9 °C 5.9 °C 1017.5 hPa Calm     93 % 0 mm
02:10 6.8 °C 5.6 °C 1017.5 hPa Calm     92 % 0 mm
02:15 6.7 °C 5.6 °C 1017.5 hPa Calm     93 % 0 mm
02:20 6.6 °C 5.6 °C 1017.5 hPa Calm     93 % 0 mm
02:25 6.6 °C 5.6 °C 1017.8 hPa ESE 1.9 km/h   93 % 0 mm
02:30 6.7 °C 5.6 °C 1017.8 hPa Calm     93 % 0 mm
02:35 6.7 °C 5.7 °C 1017.8 hPa Calm     93 % 0 mm
02:40 6.8 °C 5.7 °C 1017.8 hPa Calm     93 % 0 mm
02:45 6.8 °C 5.7 °C 1017.8 hPa Calm     93 % 0 mm
02:46 6.8 °C 5.7 °C 1017.8 hPa Calm     93 % 0 mm
02:51 6.8 °C 5.8 °C 1017.8 hPa Calm     93 % 0 mm
02:56 6.9 °C 6.1 °C 1017.8 hPa Calm     94 % 0 mm
03:01 7.1 °C 6.2 °C 1017.5 hPa ESE 1.9 km/h   94 % 0 mm
03:06 7.3 °C 6.4 °C 1017.5 hPa Calm     94 % 0 mm
03:11 7.4 °C 6.3 °C 1017.5 hPa East 1.9 km/h 1.9 km/h 93 % 0 mm
03:16 7.6 °C 6.5 °C 1017.8 hPa Calm     93 % 0 mm
03:21 7.6 °C 6.6 °C 1017.8 hPa Calm     93 % 0 mm
03:26 7.7 °C 6.6 °C 1017.8 hPa Calm     93 % 0 mm
03:31 7.7 °C 6.7 °C 1017.8 hPa Calm     93 % 0 mm
03:36 7.7 °C 6.7 °C 1017.8 hPa Calm     93 % 0 mm
03:41 7.7 °C 6.6 °C 1017.8 hPa Calm     93 % 0 mm
03:46 7.6 °C 6.5 °C 1017.8 hPa Calm     93 % 0 mm
03:56 7.4 °C 6.4 °C 1017.8 hPa Calm     93 % 0 mm
04:01 7.4 °C 6.3 °C 1017.5 hPa Calm     93 % 0 mm
04:06 7.4 °C 6.3 °C 1017.5 hPa Calm     93 % 0 mm
04:11 7.4 °C 6.3 °C 1017.8 hPa Calm     93 % 0 mm
04:16 7.3 °C 6.3 °C 1017.8 hPa Calm     93 % 0 mm
04:21 7.3 °C 6.2 °C 1017.5 hPa Calm     93 % 0 mm
04:26 7.3 °C 6.2 °C 1017.8 hPa Calm     93 % 0 mm
04:31 7.2 °C 6.1 °C 1017.8 hPa Calm     93 % 0 mm
04:36 7.2 °C 6.1 °C 1017.8 hPa Calm     93 % 0 mm
04:41 7.1 °C 6.1 °C 1017.8 hPa Calm     93 % 0 mm
04:46 7.1 °C 6 °C 1017.8 hPa Calm     93 % 0 mm
04:51 7.1 °C 6.2 °C 1017.8 hPa Calm     94 % 0 mm
04:56 7.1 °C 6.2 °C 1017.8 hPa Calm     94 % 0 mm
05:02 7.1 °C 6.2 °C 1017.8 hPa Calm     94 % 0 mm
05:07 7.1 °C 6.2 °C 1017.8 hPa Calm     94 % 0 mm
05:12 7 °C 6.1 °C 1018.2 hPa Calm     94 % 0 mm
05:17 6.9 °C 6 °C 1018.2 hPa Calm     94 % 0 mm
05:22 6.8 °C 5.9 °C 1018.2 hPa Calm     94 % 0 mm
05:27 6.7 °C 5.8 °C 1018.5 hPa Calm     94 % 0 mm
05:32 6.7 °C 5.8 °C 1018.5 hPa Calm     94 % 0 mm
05:37 6.7 °C 5.8 °C 1018.5 hPa Calm     94 % 0 mm
05:42 6.7 °C 5.8 °C 1018.5 hPa Calm     94 % 0 mm
05:47 6.6 °C 5.7 °C 1018.8 hPa Calm     94 % 0 mm
05:52 6.6 °C 5.7 °C 1018.8 hPa Calm     94 % 0 mm
05:57 6.6 °C 5.7 °C 1018.8 hPa Calm     94 % 0 mm
06:02 6.6 °C 5.8 °C 1018.8 hPa Calm     95 % 0 mm
06:07 6.5 °C 5.6 °C 1018.8 hPa Calm     94 % 0 mm
06:12 6.5 °C 5.8 °C 1018.8 hPa Calm     95 % 0 mm
06:17 6.4 °C 5.7 °C 1019.2 hPa Calm     95 % 0 mm
06:22 6.4 °C 5.7 °C 1019.2 hPa Calm     95 % 0 mm
06:27 6.3 °C 5.6 °C 1019.2 hPa Calm     95 % 0 mm
06:32 6.6 °C 5.8 °C 1019.5 hPa East 1.9 km/h   95 % 0 mm
06:37 6.7 °C 5.9 °C 1019.5 hPa Calm     95 % 0 mm
06:42 6.7 °C 5.9 °C 1019.5 hPa Calm     95 % 0 mm
06:47 6.6 °C 5.9 °C 1019.5 hPa Calm     95 % 0 mm
06:52 6.6 °C 5.8 °C 1019.5 hPa Calm     95 % 0 mm
06:57 6.6 °C 5.9 °C 1019.5 hPa Calm     95 % 0 mm
07:02 6.3 °C 5.4 °C 1019.9 hPa Calm     94 % 0 mm
07:07 6.2 °C 5.3 °C 1019.9 hPa Calm     94 % 0 mm
07:12 6.2 °C 5.5 °C 1020.2 hPa Calm   0.2 km/h 95 % 0 mm
07:17 6.1 °C 5.2 °C 1020.2 hPa East 1.9 km/h 1.9 km/h 94 % 0 mm
07:22 6.1 °C 5.2 °C 1020.5 hPa NW 1.9 km/h 1.9 km/h 94 % 0 mm
07:27 6.2 °C 5.4 °C 1020.5 hPa NW 5.6 km/h 5.6 km/h 95 % 0 mm
07:30 6.3 °C 5.6 °C 1020.9 hPa NW 3.7 km/h 3.7 km/h 95 % 0 mm
07:33 6.4 °C 5.7 °C 1020.9 hPa NW 3.7 km/h 3.7 km/h 95 % 0 mm
07:38 6.6 °C 5.9 °C 1020.9 hPa NW 1.9 km/h 1.9 km/h 95 % 0 mm
07:43 6.8 °C 6.1 °C 1020.9 hPa NW 1.9 km/h   95 % 0 mm
07:48 7.1 °C 6.3 °C 1021.2 hPa Calm     95 % 0 mm
07:53 7.3 °C 6.4 °C 1021.2 hPa Calm     94 % 0 mm
07:58 7.5 °C 6.6 °C 1021.2 hPa Calm     94 % 0 mm
08:03 7.7 °C 6.8 °C 1021.2 hPa WNW 1.9 km/h   94 % 0 mm
08:08 7.9 °C 7 °C 1021.2 hPa Calm     94 % 0 mm
08:13 8 °C 6.9 °C 1021.2 hPa Calm     93 % 0 mm
08:18 8.2 °C 7.1 °C 1021.2 hPa Calm     93 % 0 mm
08:23 8.4 °C 7.3 °C 1021.2 hPa Calm     93 % 0 mm
08:28 8.7 °C 7.7 °C 1021.6 hPa Calm     93 % 0 mm
08:33 9 °C 7.8 °C 1021.6 hPa Calm     92 % 0 mm
08:38 9.3 °C 8.1 °C 1021.6 hPa Calm     92 % 0 mm
08:43 9.6 °C 8.2 °C 1021.6 hPa Calm     91 % 0 mm
08:48 9.7 °C 8.2 °C 1021.6 hPa Calm     90 % 0 mm
08:53 9.9 °C 8.3 °C 1021.6 hPa Calm     90 % 0 mm
08:58 10.1 °C 8.3 °C 1021.6 hPa Calm     89 % 0 mm
09:03 10.2 °C 8.5 °C 1021.6 hPa WNW 1.9 km/h 1.9 km/h 89 % 0 mm
09:08 10.4 °C 8.7 °C 1021.6 hPa Calm     89 % 0 mm
09:13 10.9 °C 9.2 °C 1021.6 hPa NNW 1.9 km/h   89 % 0 mm
09:18 11.1 °C 9.2 °C 1021.6 hPa NW 1.9 km/h   88 % 0 mm
09:28 11.4 °C 9.3 °C 1021.9 hPa WNW 3.7 km/h 3.7 km/h 87 % 0 mm
09:33 11.6 °C 9.4 °C 1021.6 hPa WNW 3.7 km/h 3.7 km/h 87 % 0 mm
09:38 11.7 °C 9.6 °C 1021.9 hPa NW 1.9 km/h 1.9 km/h 87 % 0 mm
09:43 11.9 °C 9.6 °C 1021.9 hPa WNW 1.9 km/h   86 % 0 mm
09:48 12.1 °C 9.8 °C 1021.9 hPa NW 1.6 km/h 1.6 km/h 86 % 0 mm
09:53 12.4 °C 9.9 °C 1021.9 hPa West 3.7 km/h 3.7 km/h 85 % 0 mm
09:58 12.6 °C 10.1 °C 1021.9 hPa WNW 1.9 km/h 1.9 km/h 85 % 0 mm
10:03 12.8 °C 10.2 °C 1021.9 hPa NW 5.6 km/h 5.6 km/h 84 % 0 mm
10:08 12.8 °C 10 °C 1021.9 hPa NW 5.6 km/h 5.6 km/h 83 % 0 mm
10:13 13.1 °C 10.1 °C 1021.9 hPa WNW 5.6 km/h 5.6 km/h 82 % 0 mm
10:18 13.1 °C 10.1 °C 1021.9 hPa NW 3.7 km/h 3.7 km/h 82 % 0 mm
10:23 13.2 °C 10.1 °C 1021.6 hPa NW 5.6 km/h 5.6 km/h 81 % 0 mm
10:28 13.4 °C 10.2 °C 1021.6 hPa NW 5.6 km/h 5.6 km/h 81 % 0 mm
10:33 13.5 °C 10.1 °C 1021.6 hPa WNW 5.6 km/h 5.6 km/h 80 % 0 mm
10:38 13.6 °C 10.2 °C 1021.6 hPa NW 8 km/h 8 km/h 80 % 0 mm
10:43 13.7 °C 10.1 °C 1021.6 hPa NW 5.6 km/h 5.6 km/h 79 % 0 mm
10:49 13.7 °C 10.1 °C 1021.6 hPa NNW 5.6 km/h 5.6 km/h 79 % 0 mm
10:54 13.7 °C 10.1 °C 1021.6 hPa North 7.4 km/h 7.4 km/h 79 % 0 mm
10:59 13.7 °C 9.9 °C 1021.6 hPa NW 5.6 km/h 5.6 km/h 78 % 0 mm
11:04 13.8 °C 10.1 °C 1021.6 hPa NNW 5.6 km/h 5.6 km/h 78 % 0 mm
11:09 14 °C 10.1 °C 1021.2 hPa NNE 5.6 km/h 5.6 km/h 77 % 0 mm
11:14 14.1 °C 10.1 °C 1021.2 hPa NW 5.6 km/h 5.6 km/h 77 % 0 mm
11:19 14.2 °C 9.8 °C 1021.2 hPa WNW 5.6 km/h 5.6 km/h 75 % 0 mm
11:24 14.2 °C 9.8 °C 1021.2 hPa NW 5.6 km/h 5.6 km/h 75 % 0 mm
11:29 14.3 °C 10.1 °C 1021.2 hPa NW 5.6 km/h 5.6 km/h 76 % 0 mm
11:34 14.4 °C 10 °C 1020.9 hPa North 5.6 km/h 5.6 km/h 75 % 0 mm
11:39 14.4 °C 10 °C 1020.9 hPa NW 5.6 km/h 5.6 km/h 75 % 0 mm
11:44 14.3 °C 9.8 °C 1020.9 hPa WNW 3.7 km/h 3.7 km/h 74 % 0 mm
11:49 14.4 °C 9.8 °C 1020.9 hPa NW 5.6 km/h 5.6 km/h 74 % 0 mm
11:54 14.4 °C 9.8 °C 1020.5 hPa NW 7.4 km/h 7.4 km/h 74 % 0 mm
11:59 14.5 °C 9.9 °C 1020.9 hPa WNW 5.6 km/h 5.6 km/h 74 % 0 mm
12:04 14.5 °C 9.9 °C 1020.5 hPa WNW 5.6 km/h 5.6 km/h 74 % 0 mm
12:09 14.6 °C 9.6 °C 1020.5 hPa NW 5.6 km/h 5.6 km/h 72 % 0 mm
12:14 14.5 °C 9.5 °C 1020.5 hPa WNW 5.6 km/h 5.6 km/h 72 % 0 mm
12:19 14.5 °C 9.7 °C 1020.2 hPa North 5.6 km/h 5.6 km/h 73 % 0 mm
12:24 14.6 °C 9.8 °C 1020.2 hPa North 5.6 km/h 5.6 km/h 73 % 0 mm
12:29 14.6 °C 9.3 °C 1020.2 hPa NW 5.6 km/h 5.6 km/h 71 % 0 mm
12:34 14.7 °C 9.4 °C 1020.2 hPa West 5.6 km/h 5.6 km/h 71 % 0 mm
12:39 14.8 °C 9.6 °C 1020.2 hPa WNW 5.6 km/h 5.6 km/h 71 % 0 mm
12:44 14.9 °C 9.3 °C 1019.9 hPa NW 3.7 km/h 3.7 km/h 69 % 0 mm
12:49 15 °C 9.3 °C 1019.9 hPa NW 3.7 km/h 3.7 km/h 69 % 0 mm
12:54 15.1 °C 9.4 °C 1019.9 hPa NW 3.2 km/h 3.2 km/h 69 % 0 mm
12:59 15.2 °C 9.3 °C 1019.9 hPa NW 5.6 km/h 5.6 km/h 68 % 0 mm
13:04 15.1 °C 8.8 °C 1019.9 hPa NNW 8 km/h 8 km/h 66 % 0 mm
13:05 15.1 °C 8.8 °C 1019.9 hPa WSW 7.4 km/h 7.4 km/h 66 % 0 mm
13:15 15.2 °C 8.6 °C 1019.5 hPa NW 5.6 km/h 5.6 km/h 65 % 0 mm
13:20 15.3 °C 8.8 °C 1019.5 hPa NW 4.8 km/h 4.8 km/h 65 % 0 mm
13:25 15.4 °C 8.6 °C 1019.5 hPa NW 5.6 km/h 5.6 km/h 64 % 0 mm
13:30 15.4 °C 8.8 °C 1019.5 hPa NW 8 km/h 8 km/h 65 % 0 mm
13:35 15.3 °C 8.1 °C 1019.5 hPa NW 5.6 km/h 5.6 km/h 62 % 0 mm
13:40 15.3 °C 8.3 °C 1019.5 hPa NW 1.9 km/h 1.9 km/h 63 % 0 mm
13:45 15.4 °C 8.2 °C 1019.2 hPa NW 5.6 km/h 5.6 km/h 62 % 0 mm
13:50 15.4 °C 7.9 °C 1019.2 hPa NW 5.6 km/h 5.6 km/h 61 % 0 mm
13:55 15.3 °C 8.1 °C 1019.2 hPa NNW 3.2 km/h 3.2 km/h 62 % 0 mm
14:00 15.4 °C 8.2 °C 1019.2 hPa WNW 1.9 km/h 1.9 km/h 62 % 0 mm
14:05 15.6 °C 8.1 °C 1019.2 hPa NW 3.7 km/h 3.7 km/h 61 % 0 mm
14:10 15.6 °C 8.1 °C 1019.2 hPa NNW 3.2 km/h 3.2 km/h 61 % 0 mm
14:15 15.6 °C 8.1 °C 1019.2 hPa NW 3.7 km/h 3.7 km/h 61 % 0 mm
14:20 15.6 °C 8.3 °C 1019.2 hPa NW 1.9 km/h   62 % 0 mm
14:25 15.7 °C 8.2 °C 1018.8 hPa NW 1.9 km/h 1.9 km/h 61 % 0 mm
14:30 15.8 °C 8.3 °C 1018.8 hPa NNE 5.6 km/h 5.6 km/h 61 % 0 mm
14:35 15.8 °C 7.8 °C 1018.8 hPa NW 5.6 km/h 5.6 km/h 59 % 0 mm
14:40 15.9 °C 7.9 °C 1018.8 hPa WNW 3.7 km/h 3.7 km/h 59 % 0 mm
14:45 15.9 °C 7.7 °C 1018.8 hPa Calm     58 % 0 mm
14:50 15.9 °C 7.7 °C 1018.8 hPa NW 1.9 km/h 1.9 km/h 58 % 0 mm
14:55 15.9 °C 8.2 °C 1018.8 hPa ESE 1.9 km/h 1.9 km/h 60 % 0 mm
15:05 16.1 °C 8.3 °C 1018.8 hPa ESE 1.9 km/h   60 % 0 mm
15:10 16.1 °C 8.1 °C 1018.8 hPa SSE 1.9 km/h 1.9 km/h 59 % 0 mm
15:15 16.2 °C 8.2 °C 1018.8 hPa Calm     59 % 0 mm
15:20 16.2 °C 8.2 °C 1018.8 hPa Calm     59 % 0 mm
15:25 16.2 °C 8.2 °C 1018.8 hPa ESE 1.9 km/h   59 % 0 mm
15:30 16.1 °C 7.6 °C 1018.8 hPa Calm     57 % 0 mm
15:35 16 °C 7.5 °C 1018.8 hPa NW 1.9 km/h 1.9 km/h 57 % 0 mm
15:38 15.9 °C 7.4 °C 1018.8 hPa West 1.9 km/h 1.9 km/h 57 % 0 mm
15:43 15.7 °C 7.5 °C 1018.8 hPa NW 3.7 km/h   58 % 0 mm
15:48 15.6 °C 7.4 °C 1018.8 hPa NW 1.9 km/h   58 % 0 mm
15:53 15.5 °C 7 °C 1018.8 hPa NW 3.7 km/h 3.7 km/h 57 % 0 mm
15:58 15.4 °C 6.7 °C 1018.8 hPa WNW 1.9 km/h 1.9 km/h 56 % 0 mm
16:03 15.3 °C 6.3 °C 1018.8 hPa NW 3.7 km/h 3.7 km/h 55 % 0 mm
16:08 15.1 °C 5.9 °C 1018.8 hPa NW 1.9 km/h 1.9 km/h 54 % 0 mm
16:13 14.9 °C 5.9 °C 1018.8 hPa NW 1.9 km/h 1.9 km/h 55 % 0 mm
16:18 14.7 °C 5.7 °C 1018.8 hPa NW 3.7 km/h 3.7 km/h 55 % 0 mm
16:23 14.6 °C 5.9 °C 1018.8 hPa WNW 1.9 km/h 1.9 km/h 56 % 0 mm
16:28 14.3 °C 5.6 °C 1018.8 hPa NW 1.9 km/h 1.9 km/h 56 % 0 mm
16:33 14.1 °C 5.4 °C 1018.8 hPa Calm     56 % 0 mm
16:38 13.9 °C 5.3 °C 1018.8 hPa WNW 1.9 km/h 1.9 km/h 56 % 0 mm
16:43 13.7 °C 5.3 °C 1018.8 hPa NW 1.9 km/h 1.9 km/h 57 % 0 mm
16:46 13.6 °C 5.2 °C 1018.8 hPa Calm     57 % 0 mm
16:51 13.2 °C 5.1 °C 1018.8 hPa WNW 1.9 km/h   58 % 0 mm
16:56 12.9 °C 5.3 °C 1018.8 hPa Calm     60 % 0 mm
17:01 12.8 °C 5.2 °C 1018.8 hPa WNW 1.9 km/h   60 % 0 mm
17:06 12.7 °C 5.2 °C 1018.8 hPa Calm     60 % 0 mm
17:11 12.6 °C 5 °C 1018.8 hPa Calm     60 % 0 mm
17:16 12.4 °C 5.1 °C 1019.2 hPa Calm     61 % 0 mm
17:21 12.2 °C 5.2 °C 1019.2 hPa Calm     62 % 0 mm
17:26 12.1 °C 5.1 °C 1019.2 hPa Calm     62 % 0 mm
17:31 11.9 °C 5.1 °C 1019.2 hPa Calm     63 % 0 mm
17:36 11.7 °C 4.9 °C 1019.2 hPa Calm     63 % 0 mm
17:41 11.6 °C 4.8 °C 1019.2 hPa Calm     63 % 0 mm
17:46 11.6 °C 4.5 °C 1019.2 hPa Calm     62 % 0 mm
17:51 11.7 °C 4.2 °C 1019.5 hPa Calm     60 % 0 mm
17:56 11.6 °C 3.9 °C 1019.5 hPa Calm     59 % 0 mm
18:01 11.5 °C 3.8 °C 1019.5 hPa Calm     59 % 0 mm
18:06 11.2 °C 3.9 °C 1019.5 hPa Calm     61 % 0 mm
18:11 10.8 °C 4.1 °C 1019.5 hPa Calm     63 % 0 mm
18:16 10.6 °C 4.2 °C 1019.5 hPa Calm     65 % 0 mm
18:21 10.2 °C 4.2 °C 1019.5 hPa Calm     66 % 0 mm
18:26 10 °C 4.2 °C 1019.5 hPa Calm     67 % 0 mm
18:31 9.8 °C 4.2 °C 1019.5 hPa Calm     68 % 0 mm
18:36 9.7 °C 4.3 °C 1019.5 hPa Calm     69 % 0 mm
18:41 9.5 °C 4.5 °C 1019.5 hPa Calm     71 % 0 mm
18:46 9.2 °C 4.2 °C 1019.5 hPa Calm     71 % 0 mm
18:51 8.9 °C 4.3 °C 1019.9 hPa Calm     73 % 0 mm
18:56 8.6 °C 4.2 °C 1019.9 hPa Calm     74 % 0 mm
19:01 8.5 °C 4.3 °C 1019.9 hPa Calm     75 % 0 mm
19:06 8.4 °C 4 °C 1019.9 hPa Calm     74 % 0 mm
19:11 8.6 °C 4.1 °C 1019.9 hPa Calm     73 % 0 mm
19:16 8.9 °C 3.9 °C 1019.9 hPa Calm     71 % 0 mm
19:19 9.1 °C 3.9 °C 1019.9 hPa Calm     70 % 0 mm
19:20 9.2 °C 3.8 °C 1019.5 hPa NW 1.9 km/h   69 % 0 mm
19:23 9.4 °C 3.8 °C 1019.9 hPa Calm     68 % 0 mm
19:25 9.4 °C 3.8 °C 1019.9 hPa NW 1.9 km/h   68 % 0 mm
19:28 9.4 °C 3.8 °C 1019.9 hPa Calm     68 % 0 mm
19:30 9.4 °C 3.8 °C 1019.9 hPa Calm     68 % 0 mm
19:35 9.4 °C 3.8 °C 1019.9 hPa Calm     68 % 0 mm
19:39 9.3 °C 3.9 °C 1019.9 hPa Calm     69 % 0 mm
19:40 9.2 °C 3.6 °C 1019.9 hPa Calm     68 % 0 mm
19:45 9 °C 3.8 °C 1019.9 hPa Calm     70 % 0 mm
19:50 8.8 °C 3.8 °C 1019.9 hPa Calm     71 % 0 mm
19:56 8.5 °C 3.9 °C 1019.9 hPa Calm     73 % 0 mm
20:01 8.2 °C 4.1 °C 1019.9 hPa Calm     75 % 0 mm
20:06 7.8 °C 3.9 °C 1020.2 hPa Calm     76 % 0 mm
20:11 7.5 °C 3.7 °C 1020.2 hPa Calm     77 % 0 mm
20:16 7.3 °C 3.7 °C 1020.2 hPa Calm     78 % 0 mm
20:21 7.1 °C 3.7 °C 1020.2 hPa Calm     79 % 0 mm
20:26 6.9 °C 3.7 °C 1020.5 hPa Calm     80 % 0 mm
20:31 6.9 °C 3.8 °C 1020.5 hPa Calm     81 % 0 mm
20:36 6.9 °C 3.7 °C 1020.5 hPa Calm     80 % 0 mm
20:46 6.6 °C 3.6 °C 1020.5 hPa Calm     81 % 0 mm
20:51 6.3 °C 3.5 °C 1020.5 hPa Calm     82 % 0 mm
20:56 6.1 °C 3.4 °C 1020.9 hPa Calm     83 % 0 mm
21:01 5.8 °C 3.3 °C 1020.9 hPa Calm     84 % 0 mm
21:06 5.7 °C 3.3 °C 1020.9 hPa Calm     85 % 0 mm
21:11 5.6 °C 3.2 °C 1020.9 hPa Calm     85 % 0 mm
21:16 5.6 °C 3.4 °C 1020.9 hPa Calm     86 % 0 mm
21:21 5.6 °C 3.3 °C 1020.9 hPa Calm     85 % 0 mm
21:26 5.7 °C 3.3 °C 1020.9 hPa Calm     85 % 0 mm
21:36 5.7 °C 3.2 °C 1021.2 hPa Calm     84 % 0 mm
21:41 5.6 °C 3.1 °C 1021.2 hPa Calm     84 % 0 mm
21:46 5.6 °C 3.2 °C 1021.2 hPa Calm     85 % 0 mm
21:51 5.6 °C 3.2 °C 1021.2 hPa Calm     85 % 0 mm
21:56 5.6 °C 3.2 °C 1021.2 hPa Calm     85 % 0 mm
21:57 5.6 °C 3.2 °C 1021.2 hPa Calm     85 % 0 mm
22:02 5.6 °C 3.3 °C 1021.2 hPa Calm     85 % 0 mm
22:07 5.7 °C 3.4 °C 1021.2 hPa Calm     85 % 0 mm
22:12 5.8 °C 3.5 °C 1021.2 hPa Calm     85 % 0 mm
22:18 5.9 °C 3.6 °C 1021.6 hPa Calm     85 % 0 mm
22:23 5.9 °C 3.6 °C 1021.6 hPa Calm     85 % 0 mm
22:28 5.9 °C 3.6 °C 1021.6 hPa Calm     85 % 0 mm
22:33 5.9 °C 3.6 °C 1021.6 hPa Calm     85 % 0 mm
22:38 5.9 °C 3.6 °C 1021.6 hPa Calm     85 % 0 mm
22:43 5.8 °C 3.5 °C 1021.6 hPa Calm     85 % 0 mm
22:48 5.8 °C 3.5 °C 1021.6 hPa Calm     85 % 0 mm
22:53 5.8 °C 3.5 °C 1021.6 hPa Calm     85 % 0 mm
22:58 5.8 °C 3.4 °C 1021.2 hPa Calm     85 % 0 mm
23:03 5.7 °C 3.6 °C 1021.2 hPa Calm     86 % 0 mm
23:08 5.8 °C 3.4 °C 1021.6 hPa Calm     85 % 0 mm
23:13 5.8 °C 3.4 °C 1021.6 hPa Calm     85 % 0 mm
23:18 5.7 °C 3.3 °C 1021.6 hPa Calm     85 % 0 mm
23:23 5.6 °C 3.4 °C 1021.6 hPa Calm     86 % 0 mm
23:28 5.4 °C 3.3 °C 1021.6 hPa Calm     86 % 0 mm
23:33 5.3 °C 3.2 °C 1021.6 hPa Calm     86 % 0 mm
23:38 5.2 °C 3.2 °C 1021.6 hPa Calm     87 % 0 mm
23:43 5.2 °C 3.2 °C 1021.2 hPa Calm     87 % 0 mm
23:48 5.1 °C 3.1 °C 1021.2 hPa Calm     87 % 0 mm
23:53 5.1 °C 3.2 °C 1021.2 hPa Calm     88 % 0 mm
23:58 5 °C 3.2 °C 1021.2 hPa Calm     88 % 0 mm
Park Place, Exeter, Tulare County, California, USA
Compliments of Weather Underground - 2.75 mb